Time;durP1;ratioP1;P1;durP2;ratioP2;P2;SDS_P1;SDS_P2;PMS_P1;PMS_P2;Temp;Humidity;BMP_temperature;BMP_pressure;BME280_temperature;BME280_humidity;BME280_pressure;Samples;Min_cycle;Max_cycle;Signal;HPM_P1;HPM_P2
2024/01/16 00:01:30;;;;;;;;;;;19.80;53.70;;;;;;5032449;28;19968;-60
2024/01/16 00:03:56;;;;;;;;;;;19.80;53.70;;;;;;5015315;28;19932;-62
2024/01/16 00:06:21;;;;;;;;;;;19.70;53.60;;;;;;5033536;28;19971;-62
2024/01/16 00:08:47;;;;;;;;;;;19.70;53.40;;;;;;5032567;28;19925;-62
2024/01/16 00:11:12;;;;;;;;;;;19.70;53.30;;;;;;5032698;28;20380;-62
2024/01/16 00:13:38;;;;;;;;;;;19.60;53.00;;;;;;5033091;28;20027;-63
2024/01/16 00:16:03;;;;;;;;;;;19.50;52.90;;;;;;5014522;28;19933;-63
2024/01/16 00:18:29;;;;;;;;;;;19.50;52.80;;;;;;5033627;28;20011;-63
2024/01/16 00:20:55;;;;;;;;;;;19.50;52.70;;;;;;5033210;28;19930;-63
2024/01/16 00:23:20;;;;;;;;;;;19.50;52.70;;;;;;5032290;28;19933;-63
2024/01/16 00:25:46;;;;;;;;;;;19.40;52.60;;;;;;5032984;28;19967;-63
2024/01/16 00:28:11;;;;;;;;;;;19.40;52.60;;;;;;5014870;28;19929;-63
2024/01/16 00:30:37;;;;;;;;;;;19.40;52.50;;;;;;5021071;28;19925;-63
2024/01/16 00:33:02;;;;;;;;;;;19.40;52.60;;;;;;4995613;28;20348;-63
2024/01/16 00:35:30;;;;;;;;;;;19.30;52.50;;;;;;5012773;28;19995;-63
2024/01/16 00:37:56;;;;;;;;;;;19.30;52.40;;;;;;4995679;28;20414;-63
2024/01/16 00:40:21;;;;;;;;;;;19.30;52.40;;;;;;5013232;28;20013;-63
2024/01/16 00:42:47;;;;;;;;;;;19.20;52.30;;;;;;4995146;28;19972;-63
2024/01/16 00:45:12;;;;;;;;;;;19.20;52.30;;;;;;5012957;28;19925;-63
2024/01/16 00:47:38;;;;;;;;;;;19.20;52.20;;;;;;4995564;28;19979;-63
2024/01/16 00:50:03;;;;;;;;;;;19.20;52.20;;;;;;5012252;28;19972;-63
2024/01/16 00:52:29;;;;;;;;;;;19.10;52.10;;;;;;5012863;28;20377;-63
2024/01/16 00:54:54;;;;;;;;;;;19.10;52.00;;;;;;4995509;28;19995;-63
2024/01/16 00:57:20;;;;;;;;;;;19.10;52.00;;;;;;5012508;28;19928;-63
2024/01/16 00:59:46;;;;;;;;;;;19.10;52.00;;;;;;5013034;28;20389;-63
2024/01/16 01:02:12;;;;;;;;;;;19.10;52.00;;;;;;5012960;28;20067;-63
2024/01/16 01:04:37;;;;;;;;;;;19.00;51.90;;;;;;5012702;28;19922;-63
2024/01/16 01:07:03;;;;;;;;;;;19.00;51.90;;;;;;5012807;28;20008;-63
2024/01/16 01:09:28;;;;;;;;;;;19.00;51.90;;;;;;5012837;28;19928;-63
2024/01/16 01:11:54;;;;;;;;;;;19.00;51.80;;;;;;5035837;28;19925;-63
2024/01/16 01:14:19;;;;;;;;;;;19.00;51.90;;;;;;5034989;28;19925;-63
2024/01/16 01:16:45;;;;;;;;;;;19.00;51.80;;;;;;5052810;28;20414;-63
2024/01/16 01:19:10;;;;;;;;;;;19.00;51.80;;;;;;5033742;28;19935;-63
2024/01/16 01:21:36;;;;;;;;;;;18.90;51.70;;;;;;5052570;28;19954;-63
2024/01/16 01:24:01;;;;;;;;;;;18.90;51.70;;;;;;5052273;28;19925;-63
2024/01/16 01:26:27;;;;;;;;;;;18.90;51.60;;;;;;5051451;28;19955;-63
2024/01/16 01:28:52;;;;;;;;;;;18.90;51.70;;;;;;5052464;28;19925;-63
2024/01/16 01:31:18;;;;;;;;;;;18.90;51.60;;;;;;5052597;28;19982;-63
2024/01/16 01:33:43;;;;;;;;;;;18.80;51.50;;;;;;5051929;28;19932;-63
2024/01/16 01:36:09;;;;;;;;;;;18.80;51.50;;;;;;5052497;28;19925;-63
2024/01/16 01:38:35;;;;;;;;;;;18.80;51.50;;;;;;5034550;28;20336;-63
2024/01/16 01:41:00;;;;;;;;;;;18.80;51.50;;;;;;5033903;28;19948;-63
2024/01/16 01:43:26;;;;;;;;;;;18.80;51.50;;;;;;5056292;28;20332;-63
2024/01/16 01:46:08;;;;;;;;;;;18.80;51.40;;;;;;5055205;28;19925;-63
2024/01/16 01:48:34;;;;;;;;;;;18.70;51.30;;;;;;5055828;28;20276;-63
2024/01/16 01:51:00;;;;;;;;;;;18.70;51.30;;;;;;5021220;28;20047;-63
2024/01/16 01:53:25;;;;;;;;;;;18.70;51.30;;;;;;5055317;28;19931;-63
2024/01/16 01:55:51;;;;;;;;;;;18.70;51.20;;;;;;5055550;28;19932;-63
2024/01/16 01:58:16;;;;;;;;;;;18.70;51.30;;;;;;5021168;28;19932;-63
2024/01/16 02:00:42;;;;;;;;;;;18.70;51.20;;;;;;5055196;28;19925;-62
2024/01/16 02:03:10;;;;;;;;;;;18.70;51.20;;;;;;5037755;28;20011;-63
2024/01/16 02:05:35;;;;;;;;;;;18.70;51.20;;;;;;5055546;28;19932;-63
2024/01/16 02:08:00;;;;;;;;;;;18.70;51.20;;;;;;5036598;28;20026;-64
2024/01/16 02:10:26;;;;;;;;;;;18.70;51.10;;;;;;5020928;28;20399;-63
2024/01/16 02:12:51;;;;;;;;;;;18.60;51.00;;;;;;5055323;28;20024;-64
2024/01/16 02:15:17;;;;;;;;;;;18.60;51.00;;;;;;5054676;28;20376;-63
2024/01/16 02:17:42;;;;;;;;;;;18.60;51.00;;;;;;5055483;28;19928;-63
2024/01/16 02:20:08;;;;;;;;;;;18.60;50.90;;;;;;5054822;28;19979;-63
2024/01/16 02:22:34;;;;;;;;;;;18.60;50.90;;;;;;5036689;28;19932;-63
2024/01/16 02:24:59;;;;;;;;;;;18.60;50.90;;;;;;5036663;28;19932;-63
2024/01/16 02:27:25;;;;;;;;;;;18.70;51.00;;;;;;5055186;28;19925;-63
2024/01/16 02:29:50;;;;;;;;;;;18.60;50.90;;;;;;5036593;28;19925;-63
2024/01/16 02:32:15;;;;;;;;;;;18.60;50.90;;;;;;5054844;28;19925;-63
2024/01/16 02:34:41;;;;;;;;;;;18.60;50.90;;;;;;5055367;28;19952;-63
2024/01/16 02:37:07;;;;;;;;;;;18.60;50.90;;;;;;5053992;28;19924;-63
2024/01/16 02:39:32;;;;;;;;;;;18.60;50.90;;;;;;5054708;28;19931;-63
2024/01/16 02:41:58;;;;;;;;;;;18.60;50.80;;;;;;5054133;28;19924;-63
2024/01/16 02:44:23;;;;;;;;;;;18.60;50.80;;;;;;5013170;28;19932;-63
2024/01/16 02:46:49;;;;;;;;;;;18.60;50.70;;;;;;5015104;28;19925;-63
2024/01/16 02:49:15;;;;;;;;;;;18.60;50.70;;;;;;5014054;28;19932;-63
2024/01/16 02:51:41;;;;;;;;;;;18.60;50.70;;;;;;5014888;28;19940;-63
2024/01/16 02:54:07;;;;;;;;;;;18.60;50.70;;;;;;5013394;28;20300;-63
2024/01/16 02:56:33;;;;;;;;;;;18.60;50.60;;;;;;4996613;28;20012;-63
2024/01/16 02:58:58;;;;;;;;;;;18.60;50.60;;;;;;5014748;28;20350;-63
2024/01/16 03:01:24;;;;;;;;;;;18.60;50.50;;;;;;5014751;28;19926;-63
2024/01/16 03:03:49;;;;;;;;;;;18.50;50.50;;;;;;5014227;28;19925;-63
2024/01/16 03:06:22;;;;;;;;;;;18.60;50.50;;;;;;5014391;28;20012;-63
2024/01/16 03:08:48;;;;;;;;;;;18.50;50.40;;;;;;5014122;28;19936;-63
2024/01/16 03:11:13;;;;;;;;;;;18.50;50.40;;;;;;5013496;28;19930;-64
2024/01/16 03:13:39;;;;;;;;;;;18.50;50.50;;;;;;5014500;28;19932;-63
2024/01/16 03:16:06;;;;;;;;;;;18.50;50.30;;;;;;5014417;28;19922;-63
2024/01/16 03:18:32;;;;;;;;;;;18.50;50.30;;;;;;5013634;28;19952;-64
2024/01/16 03:20:58;;;;;;;;;;;18.50;50.20;;;;;;5013969;28;19925;-64
2024/01/16 03:23:24;;;;;;;;;;;18.50;50.20;;;;;;4997091;28;19932;-64
2024/01/16 03:25:49;;;;;;;;;;;18.50;50.30;;;;;;4995565;28;19925;-64
2024/01/16 03:28:14;;;;;;;;;;;18.50;50.20;;;;;;5014080;28;19926;-63
2024/01/16 03:30:40;;;;;;;;;;;18.50;50.20;;;;;;5014200;28;20369;-64
2024/01/16 03:33:06;;;;;;;;;;;18.50;50.20;;;;;;5013187;28;20012;-63
2024/01/16 03:35:31;;;;;;;;;;;18.50;50.30;;;;;;4996612;28;19956;-64
2024/01/16 03:37:57;;;;;;;;;;;18.50;50.30;;;;;;5028083;28;19929;-64
2024/01/16 03:40:22;;;;;;;;;;;18.50;50.30;;;;;;5053066;28;20018;-64
2024/01/16 03:42:48;;;;;;;;;;;18.50;50.20;;;;;;5053663;28;19924;-63
2024/01/16 03:45:13;;;;;;;;;;;18.50;50.20;;;;;;5053188;28;19931;-64
2024/01/16 03:47:39;;;;;;;;;;;18.50;50.20;;;;;;5053100;28;19925;-64
2024/01/16 03:50:05;;;;;;;;;;;18.50;50.20;;;;;;5053196;28;19940;-64
2024/01/16 03:52:30;;;;;;;;;;;18.50;50.20;;;;;;5052828;28;19939;-63
2024/01/16 03:54:55;;;;;;;;;;;18.60;50.20;;;;;;5053156;28;19979;-63
2024/01/16 03:57:21;;;;;;;;;;;18.60;50.20;;;;;;5052676;28;19951;-63
2024/01/16 03:59:47;;;;;;;;;;;18.60;50.10;;;;;;5035167;28;19960;-63
2024/01/16 04:02:12;;;;;;;;;;;18.60;50.10;;;;;;5051983;28;19929;-62
2024/01/16 04:04:38;;;;;;;;;;;18.60;50.10;;;;;;5034640;28;19925;-63
2024/01/16 04:07:03;;;;;;;;;;;18.60;50.00;;;;;;5032334;28;19932;-64
2024/01/16 04:09:29;;;;;;;;;;;18.60;50.00;;;;;;5033299;28;19925;-63
2024/01/16 04:11:54;;;;;;;;;;;18.60;49.90;;;;;;5032847;28;19932;-63
2024/01/16 04:14:20;;;;;;;;;;;18.70;50.00;;;;;;5032763;28;19925;-63
2024/01/16 04:16:45;;;;;;;;;;;18.70;50.00;;;;;;5033243;28;19925;-63
2024/01/16 04:19:11;;;;;;;;;;;18.70;50.00;;;;;;5015285;28;20405;-63
2024/01/16 04:21:36;;;;;;;;;;;18.70;49.90;;;;;;5032407;28;19929;-63
2024/01/16 04:24:02;;;;;;;;;;;18.70;49.90;;;;;;5033156;28;19971;-63
2024/01/16 04:26:28;;;;;;;;;;;18.70;49.90;;;;;;5032940;28;20015;-63
2024/01/16 04:28:53;;;;;;;;;;;18.70;49.80;;;;;;5032219;28;19925;-63
2024/01/16 04:31:21;;;;;;;;;;;18.80;49.80;;;;;;5033071;28;19980;-63
2024/01/16 04:33:48;;;;;;;;;;;18.80;49.80;;;;;;5032708;28;20405;-63
2024/01/16 04:36:14;;;;;;;;;;;18.80;49.80;;;;;;5031915;28;20363;-63
2024/01/16 04:38:39;;;;;;;;;;;18.80;49.70;;;;;;5015353;28;19925;-63
2024/01/16 04:41:05;;;;;;;;;;;18.80;49.70;;;;;;5032497;28;19929;-63
2024/01/16 04:43:30;;;;;;;;;;;18.80;49.70;;;;;;5014646;28;20012;-63
2024/01/16 04:45:56;;;;;;;;;;;18.80;49.60;;;;;;5014995;28;20012;-63
2024/01/16 04:48:21;;;;;;;;;;;18.80;49.60;;;;;;5015570;28;19933;-63
2024/01/16 04:50:47;;;;;;;;;;;18.90;49.60;;;;;;5032015;28;19925;-63
2024/01/16 04:53:13;;;;;;;;;;;18.90;49.60;;;;;;5032659;28;19925;-63
2024/01/16 04:55:38;;;;;;;;;;;18.90;49.60;;;;;;5032044;28;20011;-63
2024/01/16 04:58:05;;;;;;;;;;;18.90;49.50;;;;;;5014915;28;19948;-63
2024/01/16 05:00:31;;;;;;;;;;;18.90;49.50;;;;;;5015108;28;19925;-63
2024/01/16 05:02:56;;;;;;;;;;;18.90;49.50;;;;;;5031582;28;19931;-63
2024/01/16 05:05:22;;;;;;;;;;;18.90;49.50;;;;;;5032092;28;20300;-63
2024/01/16 05:07:47;;;;;;;;;;;19.00;49.50;;;;;;5032843;28;19983;-63
2024/01/16 05:10:13;;;;;;;;;;;19.00;49.40;;;;;;5031610;28;19926;-63
2024/01/16 05:12:39;;;;;;;;;;;19.00;49.40;;;;;;5032757;28;19925;-63
2024/01/16 05:15:05;;;;;;;;;;;19.00;49.40;;;;;;5032344;28;20388;-63
2024/01/16 05:17:30;;;;;;;;;;;19.00;49.30;;;;;;5034582;28;19921;-63
2024/01/16 05:19:56;;;;;;;;;;;19.00;49.30;;;;;;5036137;28;20458;-63
2024/01/16 05:22:22;;;;;;;;;;;19.00;49.30;;;;;;5036674;28;20010;-63
2024/01/16 05:24:47;;;;;;;;;;;19.00;49.30;;;;;;5017885;28;19960;-63
2024/01/16 05:27:14;;;;;;;;;;;19.00;49.20;;;;;;5036243;28;19976;-63
2024/01/16 05:29:42;;;;;;;;;;;19.00;49.30;;;;;;5019018;28;19925;-63
2024/01/16 05:32:07;;;;;;;;;;;19.00;49.20;;;;;;5035447;28;19931;-63
2024/01/16 05:34:33;;;;;;;;;;;19.10;49.20;;;;;;5036164;28;19925;-63
2024/01/16 05:36:58;;;;;;;;;;;19.10;49.20;;;;;;5036148;28;19928;-63
2024/01/16 05:39:24;;;;;;;;;;;19.10;49.20;;;;;;5035486;28;20016;-63
2024/01/16 05:41:49;;;;;;;;;;;19.10;49.10;;;;;;5036061;28;19925;-63
2024/01/16 05:44:15;;;;;;;;;;;19.10;49.10;;;;;;5035784;28;20345;-63
2024/01/16 05:46:41;;;;;;;;;;;19.10;49.10;;;;;;5035329;28;20395;-63
2024/01/16 05:49:06;;;;;;;;;;;19.10;49.10;;;;;;5035882;28;20016;-63
2024/01/16 05:51:32;;;;;;;;;;;19.10;49.10;;;;;;5036129;28;20024;-63
2024/01/16 05:53:57;;;;;;;;;;;19.20;49.10;;;;;;5035071;28;20008;-63
2024/01/16 05:56:23;;;;;;;;;;;19.20;49.10;;;;;;5035963;28;20323;-63
2024/01/16 05:58:48;;;;;;;;;;;19.20;49.10;;;;;;5035778;28;20002;-63
2024/01/16 06:01:14;;;;;;;;;;;19.20;49.10;;;;;;5034750;28;19925;-63
2024/01/16 06:03:39;;;;;;;;;;;19.20;49.00;;;;;;5035847;28;19921;-63
2024/01/16 06:06:05;;;;;;;;;;;19.20;49.00;;;;;;5034848;28;19932;-63
2024/01/16 06:08:31;;;;;;;;;;;19.20;49.00;;;;;;5018273;28;19921;-63
2024/01/16 06:10:56;;;;;;;;;;;19.20;48.90;;;;;;5035051;28;19925;-63
2024/01/16 06:13:22;;;;;;;;;;;19.20;48.90;;;;;;5034787;28;20395;-63
2024/01/16 06:15:47;;;;;;;;;;;19.20;48.90;;;;;;5035508;28;19925;-63
2024/01/16 06:18:13;;;;;;;;;;;19.20;48.90;;;;;;5034857;28;19948;-63
2024/01/16 06:20:38;;;;;;;;;;;19.20;48.90;;;;;;5016596;28;19925;-63
2024/01/16 06:23:04;;;;;;;;;;;19.20;48.80;;;;;;5049873;28;19929;-63
2024/01/16 06:25:29;;;;;;;;;;;19.30;48.80;;;;;;5048277;28;20040;-63
2024/01/16 06:27:55;;;;;;;;;;;19.30;48.80;;;;;;5054003;28;19931;-63
2024/01/16 06:30:21;;;;;;;;;;;19.30;48.80;;;;;;5037147;28;19925;-63
2024/01/16 06:32:47;;;;;;;;;;;19.30;48.80;;;;;;5055027;28;19925;-63
2024/01/16 06:35:13;;;;;;;;;;;19.30;48.80;;;;;;5054004;28;20031;-63
2024/01/16 06:37:38;;;;;;;;;;;19.30;48.80;;;;;;5054218;28;20385;-63
2024/01/16 06:40:05;;;;;;;;;;;19.30;48.70;;;;;;5054760;28;19924;-63
2024/01/16 06:42:31;;;;;;;;;;;19.30;48.70;;;;;;5054447;28;19925;-63
2024/01/16 06:44:56;;;;;;;;;;;19.30;48.70;;;;;;5036965;28;19928;-63
2024/01/16 06:47:23;;;;;;;;;;;19.30;48.70;;;;;;5054741;28;19935;-63
2024/01/16 06:49:49;;;;;;;;;;;19.40;48.70;;;;;;5036129;28;19924;-63
2024/01/16 06:52:14;;;;;;;;;;;19.30;48.60;;;;;;5054636;28;19993;-63
2024/01/16 06:54:40;;;;;;;;;;;19.30;48.60;;;;;;5054887;28;20321;-63
2024/01/16 06:57:06;;;;;;;;;;;19.40;48.70;;;;;;5035905;28;19931;-63
2024/01/16 06:59:31;;;;;;;;;;;19.40;48.70;;;;;;5036736;28;19925;-63
2024/01/16 07:01:57;;;;;;;;;;;19.40;48.60;;;;;;5036270;28;19931;-63
2024/01/16 07:04:23;;;;;;;;;;;19.30;48.50;;;;;;5053824;28;19932;-63
2024/01/16 07:06:48;;;;;;;;;;;19.30;48.50;;;;;;5054623;28;19925;-63
2024/01/16 07:09:16;;;;;;;;;;;19.40;48.60;;;;;;5053577;28;20361;-64
2024/01/16 07:11:42;;;;;;;;;;;19.40;48.60;;;;;;5054378;28;20023;-63
2024/01/16 07:14:08;;;;;;;;;;;19.40;48.50;;;;;;5053959;28;20269;-63
2024/01/16 07:16:34;;;;;;;;;;;19.40;48.50;;;;;;5035438;28;19925;-63
2024/01/16 07:18:59;;;;;;;;;;;19.40;48.50;;;;;;5036320;28;19978;-63
2024/01/16 07:21:25;;;;;;;;;;;19.40;48.50;;;;;;5054101;28;19925;-63
2024/01/16 07:23:50;;;;;;;;;;;19.40;48.50;;;;;;5053264;28;19924;-63
2024/01/16 07:26:16;;;;;;;;;;;19.50;48.50;;;;;;5035587;28;19960;-63
2024/01/16 07:28:42;;;;;;;;;;;19.50;48.50;;;;;;5053944;28;19929;-63
2024/01/16 07:31:09;;;;;;;;;;;19.50;48.50;;;;;;5052707;28;20288;-63
2024/01/16 07:33:34;;;;;;;;;;;19.50;48.40;;;;;;5054277;28;20353;-63
2024/01/16 07:36:00;;;;;;;;;;;19.40;48.40;;;;;;5036444;28;19985;-63
2024/01/16 07:38:26;;;;;;;;;;;19.40;48.40;;;;;;5053040;28;19929;-63
2024/01/16 07:40:51;;;;;;;;;;;19.50;48.40;;;;;;5053136;28;19999;-63
2024/01/16 07:43:17;;;;;;;;;;;19.50;48.30;;;;;;5053814;28;20023;-64
2024/01/16 07:45:42;;;;;;;;;;;19.50;48.40;;;;;;5052895;28;20295;-64
2024/01/16 07:48:08;;;;;;;;;;;19.50;48.40;;;;;;5053404;28;20384;-64
2024/01/16 07:50:33;;;;;;;;;;;19.50;48.10;;;;;;5035939;28;19932;-64
2024/01/16 07:52:59;;;;;;;;;;;19.50;48.20;;;;;;5052833;28;19925;-64
2024/01/16 07:55:24;;;;;;;;;;;19.50;48.30;;;;;;5053529;28;19932;-64
2024/01/16 07:57:50;;;;;;;;;;;19.50;48.30;;;;;;5036025;28;20026;-64
2024/01/16 08:00:15;;;;;;;;;;;19.50;48.30;;;;;;5034784;28;19975;-64
2024/01/16 08:02:41;;;;;;;;;;;19.50;48.40;;;;;;5053865;28;20502;-64
2024/01/16 08:05:07;;;;;;;;;;;19.50;48.40;;;;;;5052896;28;19921;-64
2024/01/16 08:07:32;;;;;;;;;;;19.50;48.50;;;;;;5034699;28;19975;-64
2024/01/16 08:09:58;;;;;;;;;;;19.60;48.60;;;;;;5052817;28;19920;-64
2024/01/16 08:12:23;;;;;;;;;;;19.60;48.60;;;;;;5053210;28;19925;-64
2024/01/16 08:14:48;;;;;;;;;;;19.60;48.60;;;;;;5052702;28;19924;-64
2024/01/16 08:17:14;;;;;;;;;;;19.50;48.60;;;;;;5053170;28;19947;-65
2024/01/16 08:19:40;;;;;;;;;;;19.60;48.50;;;;;;5052665;28;19925;-64
2024/01/16 08:22:06;;;;;;;;;;;19.60;48.60;;;;;;5035368;28;20373;-64
2024/01/16 08:24:31;;;;;;;;;;;19.60;48.60;;;;;;5035642;28;19931;-64
2024/01/16 08:26:57;;;;;;;;;;;19.60;48.60;;;;;;5030711;28;20007;-65
2024/01/16 08:29:26;;;;;;;;;;;19.60;48.70;;;;;;5033363;28;19925;-65
2024/01/16 08:31:52;;;;;;;;;;;19.60;48.80;;;;;;5032974;28;19936;-65
2024/01/16 08:34:18;;;;;;;;;;;19.60;48.70;;;;;;5001764;28;19948;-64
2024/01/16 08:36:43;;;;;;;;;;;19.60;48.70;;;;;;4993311;28;19922;-64
2024/01/16 08:39:10;;;;;;;;;;;19.60;48.80;;;;;;4999944;28;19952;-64
2024/01/16 08:41:35;;;;;;;;;;;19.60;48.80;;;;;;4992819;28;20035;-64
2024/01/16 08:44:01;;;;;;;;;;;19.60;48.80;;;;;;4993424;28;20390;-64
2024/01/16 08:46:26;;;;;;;;;;;19.60;48.80;;;;;;5013403;28;19932;-64
2024/01/16 08:48:52;;;;;;;;;;;19.60;48.80;;;;;;5011420;28;19925;-64
2024/01/16 08:51:17;;;;;;;;;;;19.60;48.80;;;;;;5015723;28;20020;-65
2024/01/16 08:53:43;;;;;;;;;;;19.60;48.70;;;;;;5017394;28;20012;-64
2024/01/16 08:56:08;;;;;;;;;;;19.60;48.70;;;;;;5016227;28;19929;-64
2024/01/16 08:58:38;;;;;;;;;;;19.60;48.80;;;;;;5017430;28;20292;-64
2024/01/16 09:01:04;;;;;;;;;;;19.60;48.80;;;;;;5017088;28;19945;-64
2024/01/16 09:03:31;;;;;;;;;;;19.70;48.80;;;;;;5016671;28;19925;-64
2024/01/16 09:05:57;;;;;;;;;;;19.70;48.80;;;;;;5015549;28;19925;-63
2024/01/16 09:08:22;;;;;;;;;;;19.70;49.10;;;;;;5001619;28;20024;-61
2024/01/16 09:10:48;;;;;;;;;;;19.70;49.10;;;;;;5006716;28;19980;-66
2024/01/16 09:13:13;;;;;;;;;;;19.80;49.30;;;;;;5011441;28;19925;-65
2024/01/16 09:15:39;;;;;;;;;;;19.70;49.30;;;;;;5006269;28;20020;-66
2024/01/16 09:18:05;;;;;;;;;;;19.80;49.30;;;;;;5011056;28;19926;-64
2024/01/16 09:20:31;;;;;;;;;;;19.80;49.30;;;;;;5006568;28;19926;-64
2024/01/16 09:22:56;;;;;;;;;;;19.80;49.40;;;;;;5015323;28;19972;-65
2024/01/16 09:25:24;;;;;;;;;;;19.80;49.40;;;;;;5011960;28;20286;-67
2024/01/16 09:27:50;;;;;;;;;;;19.80;49.40;;;;;;5011094;28;19933;-65
2024/01/16 09:30:16;;;;;;;;;;;19.80;49.40;;;;;;5015228;28;19925;-66
2024/01/16 09:32:42;;;;;;;;;;;19.90;49.50;;;;;;5012917;28;20023;-66
2024/01/16 09:35:08;;;;;;;;;;;19.90;49.50;;;;;;5011243;28;19932;-64
2024/01/16 09:37:35;;;;;;;;;;;19.90;49.60;;;;;;5009607;28;19926;-63
2024/01/16 09:40:00;;;;;;;;;;;19.90;49.60;;;;;;5016025;28;20399;-65
2024/01/16 09:42:26;;;;;;;;;;;19.90;49.60;;;;;;5015883;28;20012;-64
2024/01/16 09:44:51;;;;;;;;;;;19.90;49.60;;;;;;4997838;28;19926;-65
2024/01/16 09:47:17;;;;;;;;;;;19.90;49.60;;;;;;5013298;28;20021;-65
2024/01/16 09:49:42;;;;;;;;;;;19.90;49.60;;;;;;5014600;28;20293;-65
2024/01/16 09:52:08;;;;;;;;;;;19.90;49.60;;;;;;5014488;28;19969;-64
2024/01/16 09:54:33;;;;;;;;;;;20.00;49.70;;;;;;5011530;28;20297;-64
2024/01/16 09:56:59;;;;;;;;;;;20.00;49.70;;;;;;5010297;28;19925;-64
2024/01/16 09:59:24;;;;;;;;;;;20.00;49.60;;;;;;5015252;28;19933;-63
2024/01/16 10:01:51;;;;;;;;;;;20.00;49.20;;;;;;5015095;28;19925;-64
2024/01/16 10:04:16;;;;;;;;;;;20.00;49.30;;;;;;5006250;28;19925;-64
2024/01/16 10:06:42;;;;;;;;;;;20.00;49.40;;;;;;5008747;28;19936;-64
2024/01/16 10:09:08;;;;;;;;;;;20.00;49.50;;;;;;5013743;28;20381;-64
2024/01/16 10:11:34;;;;;;;;;;;20.00;49.60;;;;;;5015074;28;19926;-64
2024/01/16 10:13:59;;;;;;;;;;;20.00;49.50;;;;;;5014747;28;19965;-63
2024/01/16 10:16:43;;;;;;;;;;;20.00;49.50;;;;;;5015228;28;19969;-64
2024/01/16 10:19:09;;;;;;;;;;;20.00;49.60;;;;;;5013920;28;19926;-64
2024/01/16 10:21:34;;;;;;;;;;;20.00;49.60;;;;;;5015199;28;19933;-63
2024/01/16 10:24:10;;;;;;;;;;;20.10;49.70;;;;;;5014750;28;19926;-65
2024/01/16 10:26:36;;;;;;;;;;;20.00;49.70;;;;;;5009470;28;19933;-65
2024/01/16 10:29:02;;;;;;;;;;;20.00;49.80;;;;;;5002129;28;19926;-65
2024/01/16 10:31:29;;;;;;;;;;;20.00;49.70;;;;;;5012563;28;20032;-65
2024/01/16 10:33:55;;;;;;;;;;;20.00;49.60;;;;;;5013913;28;20016;-65
2024/01/16 10:36:20;;;;;;;;;;;20.00;49.60;;;;;;5010594;28;20056;-65
2024/01/16 10:38:46;;;;;;;;;;;20.00;49.60;;;;;;5006225;28;19929;-64
2024/01/16 10:41:15;;;;;;;;;;;19.90;49.60;;;;;;5013712;28;20347;-65
2024/01/16 10:43:40;;;;;;;;;;;20.00;49.60;;;;;;5015125;28;19987;-64
2024/01/16 10:46:16;;;;;;;;;;;20.00;49.70;;;;;;5009701;28;20318;-64
2024/01/16 10:48:42;;;;;;;;;;;19.90;49.60;;;;;;5006958;28;19926;-64
2024/01/16 10:51:11;;;;;;;;;;;19.90;49.60;;;;;;5014665;28;20024;-65
2024/01/16 10:53:37;;;;;;;;;;;19.90;49.60;;;;;;5014899;28;19926;-65
2024/01/16 10:56:03;;;;;;;;;;;19.90;49.60;;;;;;5013565;28;20292;-66
2024/01/16 10:58:30;;;;;;;;;;;19.90;49.60;;;;;;5013758;28;20361;-65
2024/01/16 11:00:56;;;;;;;;;;;19.80;49.60;;;;;;5012976;28;19925;-65
2024/01/16 11:03:25;;;;;;;;;;;19.90;49.70;;;;;;5012356;28;19932;-65
2024/01/16 11:05:51;;;;;;;;;;;19.80;49.50;;;;;;5013115;28;19936;-62
2024/01/16 11:08:16;;;;;;;;;;;19.80;49.30;;;;;;5013278;28;19925;-64
2024/01/16 11:10:42;;;;;;;;;;;19.80;49.40;;;;;;4992770;28;20270;-64
2024/01/16 11:13:09;;;;;;;;;;;19.80;49.30;;;;;;5007747;28;20008;-65
2024/01/16 11:15:34;;;;;;;;;;;19.80;49.40;;;;;;5010677;28;19932;-64
2024/01/16 11:18:00;;;;;;;;;;;19.70;49.30;;;;;;5013431;28;19921;-64
2024/01/16 11:20:25;;;;;;;;;;;19.80;49.40;;;;;;5013401;28;19929;-62
2024/01/16 11:22:51;;;;;;;;;;;19.70;49.30;;;;;;5012535;28;19975;-61
2024/01/16 11:25:17;;;;;;;;;;;19.70;49.70;;;;;;5019068;28;19925;-62
2024/01/16 11:27:43;;;;;;;;;;;19.70;49.70;;;;;;5033820;28;19936;-63
2024/01/16 11:30:10;;;;;;;;;;;19.70;49.80;;;;;;5032351;28;19928;-62
2024/01/16 11:32:37;;;;;;;;;;;19.70;49.70;;;;;;5033606;28;19926;-62
2024/01/16 11:35:04;;;;;;;;;;;19.70;49.80;;;;;;5033485;28;20024;-63
2024/01/16 11:37:33;;;;;;;;;;;19.70;49.80;;;;;;5032885;28;19925;-62
2024/01/16 11:40:17;;;;;;;;;;;19.70;49.70;;;;;;5012224;28;19926;-63
2024/01/16 11:42:43;;;;;;;;;;;19.70;49.80;;;;;;5030621;28;19925;-63
2024/01/16 11:45:27;;;;;;;;;;;19.70;49.80;;;;;;5032467;28;19933;-63
2024/01/16 11:48:11;;;;;;;;;;;19.70;49.70;;;;;;5032724;28;19929;-64
2024/01/16 11:50:36;;;;;;;;;;;19.70;49.70;;;;;;5032680;28;19960;-64
2024/01/16 11:53:02;;;;;;;;;;;19.60;49.60;;;;;;5033526;28;19976;-64
2024/01/16 11:55:28;;;;;;;;;;;19.70;49.60;;;;;;5015526;28;20296;-66
2024/01/16 11:57:53;;;;;;;;;;;19.60;49.70;;;;;;5032505;28;19933;-64
2024/01/16 12:00:19;;;;;;;;;;;19.70;49.70;;;;;;5033821;28;19929;-64
2024/01/16 12:02:45;;;;;;;;;;;19.60;49.80;;;;;;5033856;28;19928;-64
2024/01/16 12:05:11;;;;;;;;;;;19.60;49.90;;;;;;5032693;28;19991;-64
2024/01/16 12:07:46;;;;;;;;;;;19.60;49.90;;;;;;5033738;28;19925;-64
2024/01/16 12:10:11;;;;;;;;;;;19.60;50.00;;;;;;5033141;28;19932;-64
2024/01/16 12:12:37;;;;;;;;;;;19.60;50.00;;;;;;5032892;28;19925;-64
2024/01/16 12:15:03;;;;;;;;;;;19.60;50.10;;;;;;5033349;28;20301;-64
2024/01/16 12:17:29;;;;;;;;;;;19.60;50.10;;;;;;5033616;28;19975;-63
2024/01/16 12:19:54;;;;;;;;;;;19.60;50.10;;;;;;5032610;28;20022;-63
2024/01/16 12:22:23;;;;;;;;;;;19.60;50.10;;;;;;5015972;28;19925;-63
2024/01/16 12:24:48;;;;;;;;;;;19.60;50.10;;;;;;5032721;28;20373;-63
2024/01/16 12:27:15;;;;;;;;;;;19.60;50.10;;;;;;5032161;28;19925;-63
2024/01/16 12:29:42;;;;;;;;;;;19.60;50.10;;;;;;5033412;28;19925;-63
2024/01/16 12:32:08;;;;;;;;;;;19.60;49.80;;;;;;5033106;28;20012;-63
2024/01/16 12:34:34;;;;;;;;;;;19.60;49.70;;;;;;5032687;28;19929;-62
2024/01/16 12:37:10;;;;;;;;;;;19.50;49.60;;;;;;5015169;28;19979;-63
2024/01/16 12:39:35;;;;;;;;;;;19.50;49.60;;;;;;5032899;28;19925;-64
2024/01/16 12:42:01;;;;;;;;;;;19.50;49.60;;;;;;5031870;28;19932;-64
2024/01/16 12:44:29;;;;;;;;;;;19.50;49.60;;;;;;5015598;28;19925;-63
2024/01/16 12:46:55;;;;;;;;;;;19.60;49.70;;;;;;5032041;28;19925;-64
2024/01/16 12:49:22;;;;;;;;;;;19.60;49.80;;;;;;5033136;28;19964;-64
2024/01/16 12:51:47;;;;;;;;;;;19.60;49.80;;;;;;5015626;28;19932;-64
2024/01/16 12:54:13;;;;;;;;;;;19.60;49.80;;;;;;5014251;28;19933;-63
2024/01/16 12:56:39;;;;;;;;;;;19.60;50.00;;;;;;5031186;28;19925;-65
2024/01/16 12:59:08;;;;;;;;;;;19.60;50.10;;;;;;5013385;28;19925;-64
2024/01/16 13:01:34;;;;;;;;;;;19.60;50.20;;;;;;5032084;28;20020;-65
2024/01/16 13:04:03;;;;;;;;;;;19.60;50.30;;;;;;5032448;28;19925;-64
2024/01/16 13:06:28;;;;;;;;;;;19.70;50.40;;;;;;5032808;28;20376;-63
2024/01/16 13:09:05;;;;;;;;;;;19.70;50.40;;;;;;5031714;28;19975;-63
2024/01/16 13:11:30;;;;;;;;;;;19.70;50.50;;;;;;5032799;28;19925;-64
2024/01/16 13:14:05;;;;;;;;;;;19.70;50.40;;;;;;5014881;28;19925;-63
2024/01/16 13:16:31;;;;;;;;;;;19.70;50.40;;;;;;5032219;28;19928;-66
2024/01/16 13:19:00;;;;;;;;;;;19.80;50.50;;;;;;5032271;28;19925;-62
2024/01/16 13:21:25;;;;;;;;;;;19.80;50.60;;;;;;5032807;28;19925;-64
2024/01/16 13:23:51;;;;;;;;;;;19.80;50.60;;;;;;5032087;28;19925;-62
2024/01/16 13:26:16;;;;;;;;;;;19.80;50.60;;;;;;5032310;28;19932;-63
2024/01/16 13:28:42;;;;;;;;;;;19.80;50.70;;;;;;5015245;28;19965;-67
2024/01/16 13:31:08;;;;;;;;;;;19.90;51.20;;;;;;5031496;28;19925;-66
2024/01/16 13:33:33;;;;;;;;;;;19.90;50.90;;;;;;5014691;28;19932;-68
2024/01/16 13:35:59;;;;;;;;;;;19.90;51.80;;;;;;5014508;28;20373;-70
2024/01/16 13:38:25;;;;;;;;;;;19.90;51.00;;;;;;5016433;28;19932;-70
2024/01/16 13:40:50;;;;;;;;;;;20.00;51.10;;;;;;5018224;28;19931;-69
2024/01/16 13:43:16;;;;;;;;;;;20.00;51.20;;;;;;5017309;28;19929;-69
2024/01/16 13:45:41;;;;;;;;;;;20.00;51.30;;;;;;5036285;28;20020;-69
2024/01/16 13:48:07;;;;;;;;;;;20.00;51.50;;;;;;5017904;28;19931;-72
2024/01/16 13:50:33;;;;;;;;;;;20.00;51.60;;;;;;5013128;28;20187;-72
2024/01/16 13:52:58;;;;;;;;;;;20.00;51.70;;;;;;5014663;28;19964;-71
2024/01/16 13:55:24;;;;;;;;;;;20.00;51.70;;;;;;5035220;28;19933;-70
2024/01/16 13:57:50;;;;;;;;;;;20.00;51.70;;;;;;5016897;28;20043;-68
2024/01/16 14:00:16;;;;;;;;;;;20.10;51.90;;;;;;5017047;28;19932;-68
2024/01/16 14:02:43;;;;;;;;;;;20.10;51.90;;;;;;5034854;28;20341;-69
2024/01/16 14:05:10;;;;;;;;;;;20.00;51.80;;;;;;5034343;28;19925;-69
2024/01/16 14:07:37;;;;;;;;;;;20.10;51.80;;;;;;5017423;28;19932;-69
2024/01/16 14:10:06;;;;;;;;;;;20.10;51.80;;;;;;5017481;28;20007;-67